sensor_id;sensor_type;location;lat;lon;timestamp;P1;durP1;ratioP1;P2;durP2;ratioP2
21806;SDS011;11065;50.786;7.840;2022-09-14T00:01:06;4.20;;;2.57;;
21806;SDS011;11065;50.786;7.840;2022-09-14T00:03:50;4.50;;;2.67;;
21806;SDS011;11065;50.786;7.840;2022-09-14T00:06:18;4.03;;;2.67;;
21806;SDS011;11065;50.786;7.840;2022-09-14T00:08:48;3.57;;;2.63;;
21806;SDS011;11065;50.786;7.840;2022-09-14T00:11:16;3.80;;;2.73;;
21806;SDS011;11065;50.786;7.840;2022-09-14T00:13:44;3.70;;;2.40;;
21806;SDS011;11065;50.786;7.840;2022-09-14T00:16:13;4.50;;;2.40;;
21806;SDS011;11065;50.786;7.840;2022-09-14T00:18:42;4.10;;;2.80;;
21806;SDS011;11065;50.786;7.840;2022-09-14T00:21:10;4.70;;;2.83;;
21806;SDS011;11065;50.786;7.840;2022-09-14T00:23:38;3.80;;;2.70;;
21806;SDS011;11065;50.786;7.840;2022-09-14T00:26:10;4.37;;;2.73;;
21806;SDS011;11065;50.786;7.840;2022-09-14T00:28:40;3.67;;;2.50;;
21806;SDS011;11065;50.786;7.840;2022-09-14T00:31:12;3.77;;;3.07;;
21806;SDS011;11065;50.786;7.840;2022-09-14T00:33:42;4.33;;;2.77;;
21806;SDS011;11065;50.786;7.840;2022-09-14T00:36:19;4.77;;;3.10;;
21806;SDS011;11065;50.786;7.840;2022-09-14T00:38:51;4.47;;;2.70;;
21806;SDS011;11065;50.786;7.840;2022-09-14T00:41:22;5.97;;;2.80;;
21806;SDS011;11065;50.786;7.840;2022-09-14T00:43:58;4.17;;;3.00;;
21806;SDS011;11065;50.786;7.840;2022-09-14T00:46:33;3.93;;;3.20;;
21806;SDS011;11065;50.786;7.840;2022-09-14T00:49:06;4.17;;;3.30;;
21806;SDS011;11065;50.786;7.840;2022-09-14T00:51:48;5.07;;;3.20;;
21806;SDS011;11065;50.786;7.840;2022-09-14T00:54:21;4.93;;;3.07;;
21806;SDS011;11065;50.786;7.840;2022-09-14T00:56:48;6.80;;;3.60;;
21806;SDS011;11065;50.786;7.840;2022-09-14T00:59:16;4.40;;;3.37;;
21806;SDS011;11065;50.786;7.840;2022-09-14T01:01:52;6.13;;;3.83;;
21806;SDS011;11065;50.786;7.840;2022-09-14T01:04:19;4.77;;;3.60;;
21806;SDS011;11065;50.786;7.840;2022-09-14T01:06:55;4.30;;;3.37;;
21806;SDS011;11065;50.786;7.840;2022-09-14T01:20:46;4.30;;;3.43;;
21806;SDS011;11065;50.786;7.840;2022-09-14T01:23:49;7.10;;;3.43;;
21806;SDS011;11065;50.786;7.840;2022-09-14T01:29:04;3.90;;;3.03;;
21806;SDS011;11065;50.786;7.840;2022-09-14T01:34:44;4.57;;;3.23;;
21806;SDS011;11065;50.786;7.840;2022-09-14T01:39:50;4.80;;;3.50;;
21806;SDS011;11065;50.786;7.840;2022-09-14T01:42:22;3.90;;;3.23;;
21806;SDS011;11065;50.786;7.840;2022-09-14T01:44:53;4.47;;;2.73;;
21806;SDS011;11065;50.786;7.840;2022-09-14T01:47:36;4.83;;;3.30;;
21806;SDS011;11065;50.786;7.840;2022-09-14T01:50:10;6.10;;;2.83;;
21806;SDS011;11065;50.786;7.840;2022-09-14T01:53:06;4.20;;;2.90;;
21806;SDS011;11065;50.786;7.840;2022-09-14T01:55:39;3.80;;;2.83;;
21806;SDS011;11065;50.786;7.840;2022-09-14T01:58:34;3.87;;;2.77;;
21806;SDS011;11065;50.786;7.840;2022-09-14T02:01:23;3.80;;;2.80;;
21806;SDS011;11065;50.786;7.840;2022-09-14T02:03:58;5.80;;;3.10;;
21806;SDS011;11065;50.786;7.840;2022-09-14T02:06:36;3.83;;;2.87;;
21806;SDS011;11065;50.786;7.840;2022-09-14T02:09:08;4.90;;;3.07;;
21806;SDS011;11065;50.786;7.840;2022-09-14T02:11:37;6.13;;;3.00;;
21806;SDS011;11065;50.786;7.840;2022-09-14T02:14:04;5.00;;;3.57;;
21806;SDS011;11065;50.786;7.840;2022-09-14T02:16:32;4.33;;;3.50;;
21806;SDS011;11065;50.786;7.840;2022-09-14T02:19:00;5.27;;;3.50;;
21806;SDS011;11065;50.786;7.840;2022-09-14T02:21:28;3.97;;;2.97;;
21806;SDS011;11065;50.786;7.840;2022-09-14T02:23:57;3.73;;;3.10;;
21806;SDS011;11065;50.786;7.840;2022-09-14T02:26:25;4.90;;;3.33;;
21806;SDS011;11065;50.786;7.840;2022-09-14T02:28:53;5.03;;;3.33;;
21806;SDS011;11065;50.786;7.840;2022-09-14T02:42:38;5.63;;;3.90;;
21806;SDS011;11065;50.786;7.840;2022-09-14T02:45:22;6.07;;;3.80;;
21806;SDS011;11065;50.786;7.840;2022-09-14T02:50:53;5.50;;;4.20;;
21806;SDS011;11065;50.786;7.840;2022-09-14T02:53:23;6.43;;;4.23;;
21806;SDS011;11065;50.786;7.840;2022-09-14T02:56:03;5.93;;;4.13;;
21806;SDS011;11065;50.786;7.840;2022-09-14T02:58:34;8.40;;;4.77;;
21806;SDS011;11065;50.786;7.840;2022-09-14T03:01:03;6.20;;;4.07;;
21806;SDS011;11065;50.786;7.840;2022-09-14T03:03:31;6.13;;;4.27;;
21806;SDS011;11065;50.786;7.840;2022-09-14T03:06:01;6.00;;;4.10;;
21806;SDS011;11065;50.786;7.840;2022-09-14T03:08:31;5.67;;;4.33;;
21806;SDS011;11065;50.786;7.840;2022-09-14T03:10:58;6.23;;;4.47;;
21806;SDS011;11065;50.786;7.840;2022-09-14T03:13:25;5.67;;;4.40;;
21806;SDS011;11065;50.786;7.840;2022-09-14T03:15:52;5.17;;;4.10;;
21806;SDS011;11065;50.786;7.840;2022-09-14T03:18:19;5.43;;;4.43;;
21806;SDS011;11065;50.786;7.840;2022-09-14T03:20:46;5.33;;;4.77;;
21806;SDS011;11065;50.786;7.840;2022-09-14T03:23:13;6.10;;;4.90;;
21806;SDS011;11065;50.786;7.840;2022-09-14T03:25:41;7.97;;;4.67;;
21806;SDS011;11065;50.786;7.840;2022-09-14T03:28:09;6.73;;;5.60;;
21806;SDS011;11065;50.786;7.840;2022-09-14T03:30:37;7.67;;;4.93;;
21806;SDS011;11065;50.786;7.840;2022-09-14T03:33:04;6.53;;;5.07;;
21806;SDS011;11065;50.786;7.840;2022-09-14T03:35:31;9.43;;;4.97;;
21806;SDS011;11065;50.786;7.840;2022-09-14T03:37:58;6.27;;;4.60;;
21806;SDS011;11065;50.786;7.840;2022-09-14T03:40:28;7.23;;;4.87;;
21806;SDS011;11065;50.786;7.840;2022-09-14T03:42:55;7.90;;;4.90;;
21806;SDS011;11065;50.786;7.840;2022-09-14T03:45:22;6.33;;;4.80;;
21806;SDS011;11065;50.786;7.840;2022-09-14T03:47:49;5.80;;;4.63;;
21806;SDS011;11065;50.786;7.840;2022-09-14T03:50:16;6.43;;;4.87;;
21806;SDS011;11065;50.786;7.840;2022-09-14T03:52:43;5.27;;;4.57;;
21806;SDS011;11065;50.786;7.840;2022-09-14T03:55:10;5.80;;;4.40;;
21806;SDS011;11065;50.786;7.840;2022-09-14T03:57:37;7.10;;;4.57;;
21806;SDS011;11065;50.786;7.840;2022-09-14T04:00:04;6.03;;;4.53;;
21806;SDS011;11065;50.786;7.840;2022-09-14T04:02:39;5.47;;;4.50;;
21806;SDS011;11065;50.786;7.840;2022-09-14T04:05:06;7.93;;;4.97;;
21806;SDS011;11065;50.786;7.840;2022-09-14T04:07:34;7.07;;;4.70;;
21806;SDS011;11065;50.786;7.840;2022-09-14T04:10:01;7.43;;;5.43;;
21806;SDS011;11065;50.786;7.840;2022-09-14T04:12:28;6.67;;;5.37;;
21806;SDS011;11065;50.786;7.840;2022-09-14T04:14:58;6.70;;;4.87;;
21806;SDS011;11065;50.786;7.840;2022-09-14T04:17:25;6.60;;;5.07;;
21806;SDS011;11065;50.786;7.840;2022-09-14T04:19:53;7.10;;;4.53;;
21806;SDS011;11065;50.786;7.840;2022-09-14T04:22:20;5.50;;;4.63;;
21806;SDS011;11065;50.786;7.840;2022-09-14T04:24:46;6.67;;;5.00;;
21806;SDS011;11065;50.786;7.840;2022-09-14T04:27:13;6.07;;;4.97;;
21806;SDS011;11065;50.786;7.840;2022-09-14T04:29:40;8.30;;;4.47;;
21806;SDS011;11065;50.786;7.840;2022-09-14T04:32:07;5.80;;;3.83;;
21806;SDS011;11065;50.786;7.840;2022-09-14T04:34:34;5.57;;;4.43;;
21806;SDS011;11065;50.786;7.840;2022-09-14T04:37:01;5.93;;;3.53;;
21806;SDS011;11065;50.786;7.840;2022-09-14T04:39:27;5.17;;;4.10;;
21806;SDS011;11065;50.786;7.840;2022-09-14T04:41:54;5.10;;;3.93;;
21806;SDS011;11065;50.786;7.840;2022-09-14T04:44:21;6.37;;;4.70;;
21806;SDS011;11065;50.786;7.840;2022-09-14T04:46:48;5.03;;;4.00;;
21806;SDS011;11065;50.786;7.840;2022-09-14T04:49:15;5.70;;;4.00;;
21806;SDS011;11065;50.786;7.840;2022-09-14T04:51:43;5.10;;;3.97;;
21806;SDS011;11065;50.786;7.840;2022-09-14T04:54:12;5.33;;;3.90;;
21806;SDS011;11065;50.786;7.840;2022-09-14T04:56:40;4.73;;;3.60;;
21806;SDS011;11065;50.786;7.840;2022-09-14T04:59:07;5.90;;;3.97;;
21806;SDS011;11065;50.786;7.840;2022-09-14T05:01:35;5.17;;;4.13;;
21806;SDS011;11065;50.786;7.840;2022-09-14T05:04:04;5.63;;;4.13;;
21806;SDS011;11065;50.786;7.840;2022-09-14T05:06:33;6.27;;;4.13;;
21806;SDS011;11065;50.786;7.840;2022-09-14T05:09:03;5.50;;;4.43;;
21806;SDS011;11065;50.786;7.840;2022-09-14T05:11:32;4.70;;;3.70;;
21806;SDS011;11065;50.786;7.840;2022-09-14T05:14:00;6.47;;;4.00;;
21806;SDS011;11065;50.786;7.840;2022-09-14T05:16:29;4.47;;;3.50;;
21806;SDS011;11065;50.786;7.840;2022-09-14T05:18:59;7.53;;;4.30;;
21806;SDS011;11065;50.786;7.840;2022-09-14T05:21:27;5.00;;;3.77;;
21806;SDS011;11065;50.786;7.840;2022-09-14T05:23:56;5.83;;;4.10;;
21806;SDS011;11065;50.786;7.840;2022-09-14T05:26:25;5.63;;;4.17;;
21806;SDS011;11065;50.786;7.840;2022-09-14T05:28:54;4.10;;;3.47;;
21806;SDS011;11065;50.786;7.840;2022-09-14T05:31:23;4.27;;;3.60;;
21806;SDS011;11065;50.786;7.840;2022-09-14T05:33:51;4.50;;;3.33;;
21806;SDS011;11065;50.786;7.840;2022-09-14T05:36:19;5.60;;;3.53;;
21806;SDS011;11065;50.786;7.840;2022-09-14T05:38:46;5.23;;;3.37;;
21806;SDS011;11065;50.786;7.840;2022-09-14T05:41:13;4.17;;;3.30;;
21806;SDS011;11065;50.786;7.840;2022-09-14T05:43:41;4.60;;;3.53;;
21806;SDS011;11065;50.786;7.840;2022-09-14T05:46:10;4.50;;;3.50;;
21806;SDS011;11065;50.786;7.840;2022-09-14T05:48:41;4.83;;;3.23;;
21806;SDS011;11065;50.786;7.840;2022-09-14T05:51:09;4.30;;;3.53;;
21806;SDS011;11065;50.786;7.840;2022-09-14T05:53:39;4.97;;;3.70;;
21806;SDS011;11065;50.786;7.840;2022-09-14T05:56:07;5.50;;;3.63;;
21806;SDS011;11065;50.786;7.840;2022-09-14T05:58:36;6.93;;;4.13;;
21806;SDS011;11065;50.786;7.840;2022-09-14T06:03:41;5.43;;;3.73;;
21806;SDS011;11065;50.786;7.840;2022-09-14T06:06:09;6.40;;;4.00;;
21806;SDS011;11065;50.786;7.840;2022-09-14T06:08:37;4.57;;;3.40;;
21806;SDS011;11065;50.786;7.840;2022-09-14T06:11:06;5.10;;;3.63;;
21806;SDS011;11065;50.786;7.840;2022-09-14T06:13:35;6.13;;;4.53;;
21806;SDS011;11065;50.786;7.840;2022-09-14T06:16:06;7.20;;;4.27;;
21806;SDS011;11065;50.786;7.840;2022-09-14T06:18:35;5.87;;;4.57;;
21806;SDS011;11065;50.786;7.840;2022-09-14T06:21:03;7.77;;;4.57;;
21806;SDS011;11065;50.786;7.840;2022-09-14T06:23:30;5.67;;;4.00;;
21806;SDS011;11065;50.786;7.840;2022-09-14T06:25:59;6.30;;;4.47;;
21806;SDS011;11065;50.786;7.840;2022-09-14T06:28:27;5.07;;;3.60;;
21806;SDS011;11065;50.786;7.840;2022-09-14T06:30:55;5.80;;;3.90;;
21806;SDS011;11065;50.786;7.840;2022-09-14T06:33:22;6.13;;;3.93;;
21806;SDS011;11065;50.786;7.840;2022-09-14T06:35:53;5.20;;;3.97;;
21806;SDS011;11065;50.786;7.840;2022-09-14T06:38:24;7.80;;;4.47;;
21806;SDS011;11065;50.786;7.840;2022-09-14T06:40:58;6.93;;;4.30;;
21806;SDS011;11065;50.786;7.840;2022-09-14T06:43:27;4.90;;;3.77;;
21806;SDS011;11065;50.786;7.840;2022-09-14T06:45:56;4.73;;;3.60;;
21806;SDS011;11065;50.786;7.840;2022-09-14T06:48:28;5.50;;;3.97;;
21806;SDS011;11065;50.786;7.840;2022-09-14T06:50:56;4.80;;;3.60;;
21806;SDS011;11065;50.786;7.840;2022-09-14T06:53:23;4.73;;;3.20;;
21806;SDS011;11065;50.786;7.840;2022-09-14T06:55:50;4.90;;;3.63;;
21806;SDS011;11065;50.786;7.840;2022-09-14T06:58:18;4.17;;;3.00;;
21806;SDS011;11065;50.786;7.840;2022-09-14T07:00:44;4.00;;;2.93;;
21806;SDS011;11065;50.786;7.840;2022-09-14T07:03:11;4.47;;;2.93;;
21806;SDS011;11065;50.786;7.840;2022-09-14T07:05:38;3.90;;;2.83;;
21806;SDS011;11065;50.786;7.840;2022-09-14T07:08:05;3.60;;;2.97;;
21806;SDS011;11065;50.786;7.840;2022-09-14T07:10:37;4.70;;;3.40;;
21806;SDS011;11065;50.786;7.840;2022-09-14T07:13:04;3.90;;;2.60;;
21806;SDS011;11065;50.786;7.840;2022-09-14T07:15:31;4.47;;;2.77;;
21806;SDS011;11065;50.786;7.840;2022-09-14T07:17:58;2.53;;;2.10;;
21806;SDS011;11065;50.786;7.840;2022-09-14T07:20:25;4.07;;;2.40;;
21806;SDS011;11065;50.786;7.840;2022-09-14T07:22:52;3.07;;;2.37;;
21806;SDS011;11065;50.786;7.840;2022-09-14T07:25:19;3.67;;;2.70;;
21806;SDS011;11065;50.786;7.840;2022-09-14T07:27:46;3.77;;;2.60;;
21806;SDS011;11065;50.786;7.840;2022-09-14T07:30:13;3.83;;;2.80;;
21806;SDS011;11065;50.786;7.840;2022-09-14T07:32:40;3.57;;;2.53;;
21806;SDS011;11065;50.786;7.840;2022-09-14T07:35:07;3.63;;;2.40;;
21806;SDS011;11065;50.786;7.840;2022-09-14T07:37:34;3.60;;;2.60;;
21806;SDS011;11065;50.786;7.840;2022-09-14T07:40:01;4.40;;;2.70;;
21806;SDS011;11065;50.786;7.840;2022-09-14T07:42:28;3.63;;;2.70;;
21806;SDS011;11065;50.786;7.840;2022-09-14T07:44:54;4.30;;;2.83;;
21806;SDS011;11065;50.786;7.840;2022-09-14T07:47:21;3.37;;;2.43;;
21806;SDS011;11065;50.786;7.840;2022-09-14T07:49:48;2.97;;;2.30;;
21806;SDS011;11065;50.786;7.840;2022-09-14T07:52:15;3.60;;;2.33;;
21806;SDS011;11065;50.786;7.840;2022-09-14T07:54:42;3.57;;;2.63;;
21806;SDS011;11065;50.786;7.840;2022-09-14T07:57:08;3.70;;;2.60;;
21806;SDS011;11065;50.786;7.840;2022-09-14T07:59:35;3.60;;;2.93;;
21806;SDS011;11065;50.786;7.840;2022-09-14T08:02:04;3.70;;;2.73;;
21806;SDS011;11065;50.786;7.840;2022-09-14T08:04:35;2.93;;;2.30;;
21806;SDS011;11065;50.786;7.840;2022-09-14T08:07:04;3.90;;;3.10;;
21806;SDS011;11065;50.786;7.840;2022-09-14T08:09:31;3.10;;;2.43;;
21806;SDS011;11065;50.786;7.840;2022-09-14T08:11:58;3.70;;;2.80;;
21806;SDS011;11065;50.786;7.840;2022-09-14T08:14:25;3.50;;;2.63;;
21806;SDS011;11065;50.786;7.840;2022-09-14T08:16:52;4.47;;;2.90;;
21806;SDS011;11065;50.786;7.840;2022-09-14T08:19:18;4.40;;;3.33;;
21806;SDS011;11065;50.786;7.840;2022-09-14T08:21:46;4.60;;;3.63;;
21806;SDS011;11065;50.786;7.840;2022-09-14T08:24:17;3.53;;;2.67;;
21806;SDS011;11065;50.786;7.840;2022-09-14T08:26:46;5.97;;;2.77;;
21806;SDS011;11065;50.786;7.840;2022-09-14T08:29:16;3.40;;;2.63;;
21806;SDS011;11065;50.786;7.840;2022-09-14T08:31:44;4.53;;;2.93;;
21806;SDS011;11065;50.786;7.840;2022-09-14T08:34:13;4.63;;;3.00;;
21806;SDS011;11065;50.786;7.840;2022-09-14T08:36:41;3.60;;;2.67;;
21806;SDS011;11065;50.786;7.840;2022-09-14T08:39:09;3.70;;;2.93;;
21806;SDS011;11065;50.786;7.840;2022-09-14T08:46:47;3.40;;;2.50;;
21806;SDS011;11065;50.786;7.840;2022-09-14T08:49:35;5.57;;;2.73;;
21806;SDS011;11065;50.786;7.840;2022-09-14T08:52:53;3.30;;;2.43;;
21806;SDS011;11065;50.786;7.840;2022-09-14T08:55:01;4.60;;;2.67;;
21806;SDS011;11065;50.786;7.840;2022-09-14T09:00:22;3.87;;;2.27;;
21806;SDS011;11065;50.786;7.840;2022-09-14T09:03:19;3.23;;;2.13;;
21806;SDS011;11065;50.786;7.840;2022-09-14T09:05:51;3.63;;;2.90;;
21806;SDS011;11065;50.786;7.840;2022-09-14T09:08:23;3.77;;;2.00;;
21806;SDS011;11065;50.786;7.840;2022-09-14T09:11:03;3.33;;;2.10;;
21806;SDS011;11065;50.786;7.840;2022-09-14T09:13:33;2.73;;;2.00;;
21806;SDS011;11065;50.786;7.840;2022-09-14T09:16:05;2.30;;;1.67;;
21806;SDS011;11065;50.786;7.840;2022-09-14T09:18:37;3.63;;;1.50;;
21806;SDS011;11065;50.786;7.840;2022-09-14T09:21:17;2.60;;;1.83;;
21806;SDS011;11065;50.786;7.840;2022-09-14T09:23:50;4.00;;;2.20;;
21806;SDS011;11065;50.786;7.840;2022-09-14T09:28:56;4.20;;;2.07;;
21806;SDS011;11065;50.786;7.840;2022-09-14T09:31:28;2.57;;;2.17;;
21806;SDS011;11065;50.786;7.840;2022-09-14T09:34:25;2.90;;;2.13;;
21806;SDS011;11065;50.786;7.840;2022-09-14T09:37:15;2.77;;;1.80;;
21806;SDS011;11065;50.786;7.840;2022-09-14T09:39:44;2.93;;;1.93;;
21806;SDS011;11065;50.786;7.840;2022-09-14T09:42:13;2.53;;;1.77;;
21806;SDS011;11065;50.786;7.840;2022-09-14T09:44:56;3.33;;;1.83;;
21806;SDS011;11065;50.786;7.840;2022-09-14T09:50:02;2.13;;;1.83;;
21806;SDS011;11065;50.786;7.840;2022-09-14T09:55:22;2.60;;;1.73;;
21806;SDS011;11065;50.786;7.840;2022-09-14T09:57:52;2.30;;;1.60;;
21806;SDS011;11065;50.786;7.840;2022-09-14T10:00:26;2.07;;;1.17;;
21806;SDS011;11065;50.786;7.840;2022-09-14T10:02:55;2.97;;;1.63;;
21806;SDS011;11065;50.786;7.840;2022-09-14T10:05:24;2.30;;;1.60;;
21806;SDS011;11065;50.786;7.840;2022-09-14T10:08:02;3.27;;;1.47;;
21806;SDS011;11065;50.786;7.840;2022-09-14T10:16:14;2.10;;;1.43;;
21806;SDS011;11065;50.786;7.840;2022-09-14T10:18:43;2.80;;;1.50;;
21806;SDS011;11065;50.786;7.840;2022-09-14T10:21:21;1.87;;;1.53;;
21806;SDS011;11065;50.786;7.840;2022-09-14T10:24:14;2.10;;;1.53;;
21806;SDS011;11065;50.786;7.840;2022-09-14T10:26:42;1.30;;;0.80;;
21806;SDS011;11065;50.786;7.840;2022-09-14T10:32:15;1.23;;;0.77;;
21806;SDS011;11065;50.786;7.840;2022-09-14T10:34:45;1.37;;;0.60;;
21806;SDS011;11065;50.786;7.840;2022-09-14T10:37:15;1.00;;;0.77;;
21806;SDS011;11065;50.786;7.840;2022-09-14T10:39:50;1.57;;;0.70;;
21806;SDS011;11065;50.786;7.840;2022-09-14T10:42:26;1.80;;;0.83;;
21806;SDS011;11065;50.786;7.840;2022-09-14T10:50:24;2.63;;;0.90;;
21806;SDS011;11065;50.786;7.840;2022-09-14T10:53:16;1.77;;;0.87;;
21806;SDS011;11065;50.786;7.840;2022-09-14T10:59:05;1.60;;;0.90;;
21806;SDS011;11065;50.786;7.840;2022-09-14T11:09:31;1.37;;;0.90;;
21806;SDS011;11065;50.786;7.840;2022-09-14T11:12:13;1.77;;;0.80;;
21806;SDS011;11065;50.786;7.840;2022-09-14T11:23:02;2.07;;;1.13;;
21806;SDS011;11065;50.786;7.840;2022-09-14T11:28:37;1.83;;;1.23;;
21806;SDS011;11065;50.786;7.840;2022-09-14T11:36:46;1.33;;;1.00;;
21806;SDS011;11065;50.786;7.840;2022-09-14T11:39:31;1.17;;;1.07;;
21806;SDS011;11065;50.786;7.840;2022-09-14T11:42:06;1.30;;;1.00;;
21806;SDS011;11065;50.786;7.840;2022-09-14T11:44:37;2.20;;;1.30;;
21806;SDS011;11065;50.786;7.840;2022-09-14T11:52:33;4.80;;;1.40;;
21806;SDS011;11065;50.786;7.840;2022-09-14T11:55:00;3.17;;;1.33;;
21806;SDS011;11065;50.786;7.840;2022-09-14T11:57:29;1.87;;;1.40;;
21806;SDS011;11065;50.786;7.840;2022-09-14T12:00:01;1.73;;;1.30;;
21806;SDS011;11065;50.786;7.840;2022-09-14T12:12:40;2.27;;;1.30;;
21806;SDS011;11065;50.786;7.840;2022-09-14T12:15:12;2.03;;;1.30;;
21806;SDS011;11065;50.786;7.840;2022-09-14T12:17:39;2.43;;;1.33;;
21806;SDS011;11065;50.786;7.840;2022-09-14T12:23:02;1.97;;;1.10;;
21806;SDS011;11065;50.786;7.840;2022-09-14T12:25:52;1.97;;;1.10;;
21806;SDS011;11065;50.786;7.840;2022-09-14T12:41:00;2.07;;;1.03;;
21806;SDS011;11065;50.786;7.840;2022-09-14T12:46:09;1.83;;;1.00;;
21806;SDS011;11065;50.786;7.840;2022-09-14T12:51:37;1.27;;;0.77;;
21806;SDS011;11065;50.786;7.840;2022-09-14T13:03:43;1.07;;;0.80;;
21806;SDS011;11065;50.786;7.840;2022-09-14T13:06:16;1.03;;;0.63;;
21806;SDS011;11065;50.786;7.840;2022-09-14T13:08:45;0.90;;;0.80;;
21806;SDS011;11065;50.786;7.840;2022-09-14T13:11:18;1.37;;;0.60;;
21806;SDS011;11065;50.786;7.840;2022-09-14T13:13:47;1.20;;;0.60;;
21806;SDS011;11065;50.786;7.840;2022-09-14T13:16:23;1.03;;;0.80;;
21806;SDS011;11065;50.786;7.840;2022-09-14T13:19:28;2.37;;;0.90;;
21806;SDS011;11065;50.786;7.840;2022-09-14T13:21:56;1.97;;;0.80;;
21806;SDS011;11065;50.786;7.840;2022-09-14T13:24:26;1.47;;;0.80;;
21806;SDS011;11065;50.786;7.840;2022-09-14T13:27:01;1.73;;;1.13;;
21806;SDS011;11065;50.786;7.840;2022-09-14T13:29:28;2.73;;;0.80;;
21806;SDS011;11065;50.786;7.840;2022-09-14T13:31:56;2.47;;;0.83;;
21806;SDS011;11065;50.786;7.840;2022-09-14T13:34:30;1.33;;;0.90;;
21806;SDS011;11065;50.786;7.840;2022-09-14T13:37:00;0.60;;;0.60;;
21806;SDS011;11065;50.786;7.840;2022-09-14T13:39:30;1.17;;;0.80;;
21806;SDS011;11065;50.786;7.840;2022-09-14T13:42:00;2.70;;;0.70;;
21806;SDS011;11065;50.786;7.840;2022-09-14T13:44:48;2.07;;;0.70;;
21806;SDS011;11065;50.786;7.840;2022-09-14T13:47:15;1.87;;;0.87;;
21806;SDS011;11065;50.786;7.840;2022-09-14T13:49:45;1.20;;;0.80;;
21806;SDS011;11065;50.786;7.840;2022-09-14T13:52:37;0.97;;;0.70;;
21806;SDS011;11065;50.786;7.840;2022-09-14T13:55:27;1.83;;;0.90;;
21806;SDS011;11065;50.786;7.840;2022-09-14T14:01:12;0.97;;;0.80;;
21806;SDS011;11065;50.786;7.840;2022-09-14T14:03:46;1.30;;;1.00;;
21806;SDS011;11065;50.786;7.840;2022-09-14T14:08:43;1.60;;;0.77;;
21806;SDS011;11065;50.786;7.840;2022-09-14T14:11:10;1.40;;;1.00;;
21806;SDS011;11065;50.786;7.840;2022-09-14T14:13:36;2.57;;;0.90;;
21806;SDS011;11065;50.786;7.840;2022-09-14T14:16:14;2.33;;;1.53;;
21806;SDS011;11065;50.786;7.840;2022-09-14T14:18:42;1.90;;;0.80;;
21806;SDS011;11065;50.786;7.840;2022-09-14T14:21:16;1.53;;;0.80;;
21806;SDS011;11065;50.786;7.840;2022-09-14T14:23:50;1.13;;;0.67;;
21806;SDS011;11065;50.786;7.840;2022-09-14T14:26:38;1.17;;;0.80;;
21806;SDS011;11065;50.786;7.840;2022-09-14T14:29:13;0.90;;;0.80;;
21806;SDS011;11065;50.786;7.840;2022-09-14T14:31:41;1.80;;;0.60;;
21806;SDS011;11065;50.786;7.840;2022-09-14T14:34:19;2.90;;;0.83;;
21806;SDS011;11065;50.786;7.840;2022-09-14T14:36:48;1.00;;;0.80;;
21806;SDS011;11065;50.786;7.840;2022-09-14T14:39:16;1.10;;;0.80;;
21806;SDS011;11065;50.786;7.840;2022-09-14T14:41:46;1.30;;;0.80;;
21806;SDS011;11065;50.786;7.840;2022-09-14T14:44:15;1.40;;;0.80;;
21806;SDS011;11065;50.786;7.840;2022-09-14T14:46:45;2.67;;;0.90;;
21806;SDS011;11065;50.786;7.840;2022-09-14T14:49:13;2.13;;;1.20;;
21806;SDS011;11065;50.786;7.840;2022-09-14T14:51:41;1.50;;;0.90;;
21806;SDS011;11065;50.786;7.840;2022-09-14T14:54:08;1.57;;;1.17;;
21806;SDS011;11065;50.786;7.840;2022-09-14T14:56:36;4.87;;;1.30;;
21806;SDS011;11065;50.786;7.840;2022-09-14T14:59:23;1.03;;;0.87;;
21806;SDS011;11065;50.786;7.840;2022-09-14T15:01:53;1.47;;;0.90;;
21806;SDS011;11065;50.786;7.840;2022-09-14T15:04:20;1.90;;;1.13;;
21806;SDS011;11065;50.786;7.840;2022-09-14T15:06:48;1.20;;;1.00;;
21806;SDS011;11065;50.786;7.840;2022-09-14T15:09:16;1.50;;;0.90;;
21806;SDS011;11065;50.786;7.840;2022-09-14T15:11:48;2.30;;;0.90;;
21806;SDS011;11065;50.786;7.840;2022-09-14T15:14:16;1.57;;;1.10;;
21806;SDS011;11065;50.786;7.840;2022-09-14T15:16:48;1.00;;;0.80;;
21806;SDS011;11065;50.786;7.840;2022-09-14T15:19:15;1.73;;;0.83;;
21806;SDS011;11065;50.786;7.840;2022-09-14T15:21:42;2.80;;;0.80;;
21806;SDS011;11065;50.786;7.840;2022-09-14T15:24:09;1.20;;;0.70;;
21806;SDS011;11065;50.786;7.840;2022-09-14T15:26:36;1.57;;;0.50;;
21806;SDS011;11065;50.786;7.840;2022-09-14T15:29:03;1.10;;;0.53;;
21806;SDS011;11065;50.786;7.840;2022-09-14T15:31:30;2.23;;;0.50;;
21806;SDS011;11065;50.786;7.840;2022-09-14T15:33:58;1.80;;;0.67;;
21806;SDS011;11065;50.786;7.840;2022-09-14T15:39:01;1.87;;;0.47;;
21806;SDS011;11065;50.786;7.840;2022-09-14T15:41:29;0.40;;;0.40;;
21806;SDS011;11065;50.786;7.840;2022-09-14T15:43:55;0.90;;;0.40;;
21806;SDS011;11065;50.786;7.840;2022-09-14T15:46:22;0.40;;;0.40;;
21806;SDS011;11065;50.786;7.840;2022-09-14T15:48:49;0.50;;;0.40;;
21806;SDS011;11065;50.786;7.840;2022-09-14T15:51:16;0.57;;;0.37;;
21806;SDS011;11065;50.786;7.840;2022-09-14T15:53:44;0.40;;;0.30;;
21806;SDS011;11065;50.786;7.840;2022-09-14T15:56:13;0.63;;;0.37;;
21806;SDS011;11065;50.786;7.840;2022-09-14T15:58:41;1.10;;;0.57;;
21806;SDS011;11065;50.786;7.840;2022-09-14T16:01:14;1.17;;;0.40;;
21806;SDS011;11065;50.786;7.840;2022-09-14T16:03:42;2.13;;;1.17;;
21806;SDS011;11065;50.786;7.840;2022-09-14T16:06:10;1.20;;;0.70;;
21806;SDS011;11065;50.786;7.840;2022-09-14T16:08:38;3.00;;;0.97;;
21806;SDS011;11065;50.786;7.840;2022-09-14T16:11:06;0.97;;;0.60;;
21806;SDS011;11065;50.786;7.840;2022-09-14T16:13:34;1.20;;;0.60;;
21806;SDS011;11065;50.786;7.840;2022-09-14T16:16:05;1.73;;;0.60;;
21806;SDS011;11065;50.786;7.840;2022-09-14T16:18:33;0.80;;;0.40;;
21806;SDS011;11065;50.786;7.840;2022-09-14T16:23:34;1.53;;;0.60;;
21806;SDS011;11065;50.786;7.840;2022-09-14T16:26:08;2.33;;;0.63;;
21806;SDS011;11065;50.786;7.840;2022-09-14T16:28:36;1.67;;;0.60;;
21806;SDS011;11065;50.786;7.840;2022-09-14T16:31:04;0.83;;;0.43;;
21806;SDS011;11065;50.786;7.840;2022-09-14T16:33:40;0.47;;;0.30;;
21806;SDS011;11065;50.786;7.840;2022-09-14T16:36:09;1.03;;;0.40;;
21806;SDS011;11065;50.786;7.840;2022-09-14T16:38:38;0.80;;;0.47;;
21806;SDS011;11065;50.786;7.840;2022-09-14T16:41:07;1.03;;;0.30;;
21806;SDS011;11065;50.786;7.840;2022-09-14T16:43:34;0.47;;;0.30;;
21806;SDS011;11065;50.786;7.840;2022-09-14T16:46:05;0.73;;;0.20;;
21806;SDS011;11065;50.786;7.840;2022-09-14T16:48:38;1.30;;;0.50;;
21806;SDS011;11065;50.786;7.840;2022-09-14T16:51:06;2.17;;;0.90;;
21806;SDS011;11065;50.786;7.840;2022-09-14T16:53:34;2.97;;;1.40;;
21806;SDS011;11065;50.786;7.840;2022-09-14T16:58:31;2.93;;;1.00;;
21806;SDS011;11065;50.786;7.840;2022-09-14T17:01:05;6.90;;;2.67;;
21806;SDS011;11065;50.786;7.840;2022-09-14T17:03:43;4.10;;;2.00;;
21806;SDS011;11065;50.786;7.840;2022-09-14T17:06:13;4.60;;;1.87;;
21806;SDS011;11065;50.786;7.840;2022-09-14T17:08:42;2.27;;;1.00;;
21806;SDS011;11065;50.786;7.840;2022-09-14T17:11:09;2.93;;;0.90;;
21806;SDS011;11065;50.786;7.840;2022-09-14T17:13:37;1.80;;;0.90;;
21806;SDS011;11065;50.786;7.840;2022-09-14T17:16:06;1.33;;;0.60;;
21806;SDS011;11065;50.786;7.840;2022-09-14T17:18:39;0.63;;;0.40;;
21806;SDS011;11065;50.786;7.840;2022-09-14T17:21:09;2.83;;;0.40;;
21806;SDS011;11065;50.786;7.840;2022-09-14T17:23:38;2.33;;;0.40;;
21806;SDS011;11065;50.786;7.840;2022-09-14T17:26:06;0.47;;;0.40;;
21806;SDS011;11065;50.786;7.840;2022-09-14T17:28:35;1.43;;;0.30;;
21806;SDS011;11065;50.786;7.840;2022-09-14T17:31:03;0.43;;;0.30;;
21806;SDS011;11065;50.786;7.840;2022-09-14T17:33:31;0.60;;;0.37;;
21806;SDS011;11065;50.786;7.840;2022-09-14T17:36:01;0.70;;;0.30;;
21806;SDS011;11065;50.786;7.840;2022-09-14T17:38:34;0.90;;;0.40;;
21806;SDS011;11065;50.786;7.840;2022-09-14T17:41:03;1.87;;;0.50;;
21806;SDS011;11065;50.786;7.840;2022-09-14T17:43:32;0.40;;;0.33;;